sensor_id;sensor_type;location;lat;lon;timestamp;P1;P2;P0
68198;PMS7003;55021;51.554;17.044;2024-02-23T00:08:42;16.50;14.50;7.75
68198;PMS7003;55021;51.554;17.044;2024-02-23T00:38:47;15.25;11.00;4.00
68198;PMS7003;55021;51.554;17.044;2024-02-23T01:08:54;12.75;11.00;4.00
68198;PMS7003;55021;51.554;17.044;2024-02-23T01:24:17;8.00;8.00;3.00
68198;PMS7003;55021;51.554;17.044;2024-02-23T01:39:25;10.25;8.00;3.00
68198;PMS7003;55021;51.554;17.044;2024-02-23T02:09:46;8.50;5.00;1.75
68198;PMS7003;55021;51.554;17.044;2024-02-23T02:39:54;7.00;5.00;2.00
68198;PMS7003;55021;51.554;17.044;2024-02-23T03:10:02;5.75;5.75;2.00
68198;PMS7003;55021;51.554;17.044;2024-02-23T04:10:28;9.00;8.00;3.00
68198;PMS7003;55021;51.554;17.044;2024-02-23T04:25:31;9.75;8.25;3.00
68198;PMS7003;55021;51.554;17.044;2024-02-23T04:55:50;15.00;10.75;5.00
68198;PMS7003;55021;51.554;17.044;2024-02-23T05:26:21;12.00;12.00;6.00
68198;PMS7003;55021;51.554;17.044;2024-02-23T05:41:25;12.25;11.50;6.00
68198;PMS7003;55021;51.554;17.044;2024-02-23T06:11:30;16.75;14.50;8.25
68198;PMS7003;55021;51.554;17.044;2024-02-23T06:41:35;20.50;18.00;10.00
68198;PMS7003;55021;51.554;17.044;2024-02-23T07:11:40;13.75;10.50;5.00
68198;PMS7003;55021;51.554;17.044;2024-02-23T07:41:45;8.00;8.00;3.25
68198;PMS7003;55021;51.554;17.044;2024-02-23T07:56:48;5.75;5.75;1.75
68198;PMS7003;55021;51.554;17.044;2024-02-23T08:11:50;7.00;6.00;2.00
68198;PMS7003;55021;51.554;17.044;2024-02-23T08:26:53;4.00;4.00;1.00
68198;PMS7003;55021;51.554;17.044;2024-02-23T08:41:56;3.00;3.00;0.00
68198;PMS7003;55021;51.554;17.044;2024-02-23T08:56:58;3.00;3.00;0.00
68198;PMS7003;55021;51.554;17.044;2024-02-23T09:12:01;3.75;3.00;0.00
68198;PMS7003;55021;51.554;17.044;2024-02-23T09:27:15;4.00;3.00;0.00
68198;PMS7003;55021;51.554;17.044;2024-02-23T09:42:26;3.00;3.00;0.00
68198;PMS7003;55021;51.554;17.044;2024-02-23T09:57:36;3.00;3.00;0.00
68198;PMS7003;55021;51.554;17.044;2024-02-23T10:12:40;3.00;3.00;0.00
68198;PMS7003;55021;51.554;17.044;2024-02-23T10:27:56;4.25;3.25;0.00
68198;PMS7003;55021;51.554;17.044;2024-02-23T10:43:00;4.50;3.00;0.00
68198;PMS7003;55021;51.554;17.044;2024-02-23T10:58:08;4.75;4.00;1.00
68198;PMS7003;55021;51.554;17.044;2024-02-23T11:13:15;3.00;3.00;1.00
68198;PMS7003;55021;51.554;17.044;2024-02-23T11:43:35;3.00;3.00;0.00
68198;PMS7003;55021;51.554;17.044;2024-02-23T11:58:39;3.00;3.00;0.00
68198;PMS7003;55021;51.554;17.044;2024-02-23T12:13:44;3.50;3.00;0.00
68198;PMS7003;55021;51.554;17.044;2024-02-23T12:28:47;4.00;3.00;0.00
68198;PMS7003;55021;51.554;17.044;2024-02-23T12:43:50;4.00;4.00;0.00
68198;PMS7003;55021;51.554;17.044;2024-02-23T12:58:52;9.75;9.00;3.50
68198;PMS7003;55021;51.554;17.044;2024-02-23T13:13:55;6.75;6.75;3.25
68198;PMS7003;55021;51.554;17.044;2024-02-23T13:28:57;5.00;5.00;1.00
68198;PMS7003;55021;51.554;17.044;2024-02-23T13:44:01;4.00;4.00;1.00
68198;PMS7003;55021;51.554;17.044;2024-02-23T13:59:03;5.00;3.75;0.50
68198;PMS7003;55021;51.554;17.044;2024-02-23T14:14:06;5.50;5.00;1.00
68198;PMS7003;55021;51.554;17.044;2024-02-23T14:29:09;4.00;4.00;1.00
68198;PMS7003;55021;51.554;17.044;2024-02-23T14:44:11;3.00;3.00;0.25
68198;PMS7003;55021;51.554;17.044;2024-02-23T14:59:14;10.75;6.50;2.25
68198;PMS7003;55021;51.554;17.044;2024-02-23T15:14:16;11.00;10.25;4.00
68198;PMS7003;55021;51.554;17.044;2024-02-23T15:29:19;7.00;6.00;2.00
68198;PMS7003;55021;51.554;17.044;2024-02-23T15:44:22;8.25;8.00;3.00
68198;PMS7003;55021;51.554;17.044;2024-02-23T15:59:24;10.00;8.00;2.75
68198;PMS7003;55021;51.554;17.044;2024-02-23T16:14:27;8.00;8.00;3.00
68198;PMS7003;55021;51.554;17.044;2024-02-23T16:29:29;9.00;7.50;2.00
68198;PMS7003;55021;51.554;17.044;2024-02-23T16:44:34;8.25;8.00;3.00
68198;PMS7003;55021;51.554;17.044;2024-02-23T16:59:38;9.75;7.75;2.75
68198;PMS7003;55021;51.554;17.044;2024-02-23T17:14:41;8.00;8.00;3.00
68198;PMS7003;55021;51.554;17.044;2024-02-23T17:29:43;8.00;7.00;2.00
68198;PMS7003;55021;51.554;17.044;2024-02-23T17:44:45;8.00;7.50;2.00
68198;PMS7003;55021;51.554;17.044;2024-02-23T17:59:48;9.50;7.50;3.00
68198;PMS7003;55021;51.554;17.044;2024-02-23T18:14:56;13.25;11.25;6.75
68198;PMS7003;55021;51.554;17.044;2024-02-23T18:29:58;11.50;9.75;3.00
68198;PMS7003;55021;51.554;17.044;2024-02-23T18:45:01;13.00;10.00;4.00
68198;PMS7003;55021;51.554;17.044;2024-02-23T19:00:05;10.50;9.00;3.25
68198;PMS7003;55021;51.554;17.044;2024-02-23T19:15:08;8.00;6.50;2.00
68198;PMS7003;55021;51.554;17.044;2024-02-23T19:30:11;7.75;7.75;2.00
68198;PMS7003;55021;51.554;17.044;2024-02-23T20:00:17;7.75;7.00;2.00
68198;PMS7003;55021;51.554;17.044;2024-02-23T20:30:22;11.75;9.00;4.00
68198;PMS7003;55021;51.554;17.044;2024-02-23T20:45:24;11.00;8.00;3.00
68198;PMS7003;55021;51.554;17.044;2024-02-23T21:15:29;10.50;10.25;3.00
68198;PMS7003;55021;51.554;17.044;2024-02-23T21:30:31;15.00;15.00;6.75
68198;PMS7003;55021;51.554;17.044;2024-02-23T21:45:34;19.25;17.00;9.75
68198;PMS7003;55021;51.554;17.044;2024-02-23T22:00:37;21.50;20.00;10.25
68198;PMS7003;55021;51.554;17.044;2024-02-23T22:15:39;15.50;15.00;8.00
68198;PMS7003;55021;51.554;17.044;2024-02-23T22:30:42;33.75;30.25;15.75
68198;PMS7003;55021;51.554;17.044;2024-02-23T23:01:08;25.25;24.25;13.50
68198;PMS7003;55021;51.554;17.044;2024-02-23T23:31:32;32.25;29.25;18.50
